Time;durP1;ratioP1;P1;durP2;ratioP2;P2;SDS_P1;SDS_P2;PMS_P1;PMS_P2;Temp;Humidity;BMP_temperature;BMP_pressure;BME280_temperature;BME280_humidity;BME280_pressure;Samples;Min_cycle;Max_cycle;Signal;HPM_P1;HPM_P2
2023/04/06 00:00:57;;;;;;;10.20;9.20;;;;;;;20.04;54.61;98823.92;104322;1255;61692;-63
2023/04/06 00:03:28;;;;;;;10.90;9.80;;;;;;;20.24;53.76;98819.75;104393;1251;74483;-64
2023/04/06 00:05:57;;;;;;;9.70;8.70;;;;;;;20.23;54.03;98817.68;106245;1250;71218;-65
2023/04/06 00:08:26;;;;;;;10.10;9.20;;;;;;;20.18;53.97;98816.58;108524;1251;74147;-65
2023/04/06 00:10:55;;;;;;;10.30;8.40;;;;;;;20.27;54.22;98811.73;105680;1253;63945;-64
2023/04/06 00:13:27;;;;;;;12.20;9.50;;;;;;;20.30;54.10;98809.53;104551;1251;61606;-64
2023/04/06 00:15:56;;;;;;;10.00;9.00;;;;;;;20.35;54.02;98802.59;104521;1254;74359;-64
2023/04/06 00:18:26;;;;;;;10.10;9.10;;;;;;;20.35;53.54;98807.46;104424;1251;71267;-63
2023/04/06 00:20:55;;;;;;;10.90;9.80;;;;;;;20.32;54.02;98806.73;104389;1251;73441;-64
2023/04/06 00:23:23;;;;;;;10.40;9.30;;;;;;;20.35;53.93;98801.21;104319;1253;61930;-60
2023/04/06 00:25:52;;;;;;;11.20;10.00;;;;;;;20.43;53.89;98799.88;104354;1256;61579;-62
2023/04/06 00:30:40;;;;;;;12.80;11.00;;;;;;;19.18;66.74;98795.56;101435;1296;602197;-62
2023/04/06 00:33:09;;;;;;;13.20;10.90;;;;;;;20.51;55.79;98796.66;103764;1269;62134;-63
2023/04/06 00:35:38;;;;;;;11.10;10.00;;;;;;;20.57;54.99;98795.00;103545;1267;61145;-63
2023/04/06 00:38:07;;;;;;;12.30;10.90;;;;;;;20.51;54.52;98794.83;103455;1279;73302;-63
2023/04/06 00:40:35;;;;;;;12.60;11.30;;;;;;;20.55;54.24;98797.85;103667;1266;71185;-63
2023/04/06 00:43:04;;;;;;;12.50;10.50;;;;;;;20.58;54.27;98799.39;103426;1280;73233;-62
2023/04/06 00:45:33;;;;;;;13.40;11.10;;;;;;;20.60;54.81;98794.05;103795;1279;62953;-62
2023/04/06 00:48:01;;;;;;;12.10;10.90;;;;;;;20.61;54.47;98787.67;103843;1264;62684;-63
2023/04/06 00:50:31;;;;;;;11.70;10.50;;;;;;;20.69;54.35;98786.34;103899;1266;74246;-62
2023/04/06 00:53:00;;;;;;;12.90;11.60;;;;;;;20.71;54.10;98779.55;104386;1258;70048;-62
2023/04/06 00:55:31;;;;;;;11.50;10.40;;;;;;;20.72;54.08;98787.37;104628;1256;74085;-62
2023/04/06 00:58:00;;;;;;;14.10;11.00;;;;;;;20.69;54.15;98784.60;104473;1257;62335;-63
2023/04/06 01:00:37;;;;;;;16.50;11.50;;;;;;;20.60;54.36;98780.27;104241;1258;60812;-62
2023/04/06 01:03:13;;;;;;;12.90;11.50;;;;;;;20.61;54.47;98770.27;104292;1260;73753;-62
2023/04/06 01:05:43;;;;;;;13.60;12.30;;;;;;;20.53;54.65;98780.05;104459;1255;71000;-64
2023/04/06 01:08:20;;;;;;;13.80;12.10;;;;;;;20.42;54.50;98775.83;104519;1257;73483;-62
2023/04/06 01:10:50;;;;;;;13.80;12.10;;;;;;;20.45;54.85;98776.27;104284;1266;63101;-63
2023/04/06 01:13:27;;;;;;;12.50;10.90;;;;;;;20.49;54.98;98770.69;104439;1255;62181;-62
2023/04/06 01:15:59;;;;;;;12.70;11.40;;;;;;;20.54;54.72;98778.05;104256;1259;74557;-62
2023/04/06 01:18:37;;;;;;;14.70;12.30;;;;;;;20.53;54.99;98770.48;104355;1270;71043;-64
2023/04/06 01:21:18;;;;;;;13.10;11.70;;;;;;;20.54;54.81;98773.91;104407;1255;73284;-63
2023/04/06 01:24:10;;;;;;;13.50;12.00;;;;;;;20.49;54.82;98768.91;104073;1252;62887;-63
2023/04/06 01:27:01;;;;;;;13.60;11.60;;;;;;;20.43;55.36;98763.44;104233;1267;60790;-63
2023/04/06 01:29:44;;;;;;;12.40;11.20;;;;;;;20.46;55.73;98763.11;104300;1264;74433;-63
2023/04/06 01:32:16;;;;;;;13.10;11.80;;;;;;;20.44;55.75;98769.92;104239;1272;71851;-62
2023/04/06 01:34:49;;;;;;;12.20;10.90;;;;;;;20.41;55.81;98761.54;104351;1254;73398;-63
2023/04/06 01:37:17;;;;;;;13.20;11.80;;;;;;;20.42;56.15;98763.55;104229;1254;62232;-63
2023/04/06 01:39:46;;;;;;;14.20;11.70;;;;;;;20.40;55.72;98759.23;104284;1256;60795;-63
2023/04/06 01:42:22;;;;;;;12.20;10.90;;;;;;;20.46;56.44;98758.86;104357;1260;73848;-62
2023/04/06 01:44:51;;;;;;;14.20;12.00;;;;;;;20.40;56.65;98762.29;104375;1257;71730;-62
2023/04/06 01:47:20;;;;;;;12.90;11.50;;;;;;;20.46;56.36;98766.34;104314;1254;74134;-63
2023/04/06 01:49:49;;;;;;;14.60;12.20;;;;;;;20.48;56.35;98766.80;104212;1274;61880;-63
2023/04/06 01:52:18;;;;;;;13.90;11.60;;;;;;;20.53;56.11;98759.61;104349;1254;60846;-62
2023/04/06 01:54:52;;;;;;;14.20;11.70;;;;;;;20.51;55.93;98753.90;104263;1267;73829;-63
2023/04/06 01:57:39;;;;;;;12.30;11.00;;;;;;;20.56;55.88;98741.55;104311;1259;70115;-63
2023/04/06 02:00:19;;;;;;;14.00;11.70;;;;;;;20.49;56.03;98743.84;104245;1259;74030;-63
2023/04/06 02:02:51;;;;;;;14.10;11.30;;;;;;;20.47;56.18;98739.75;104251;1269;62415;-63
2023/04/06 02:05:23;;;;;;;12.30;10.90;;;;;;;20.51;56.07;98742.67;104313;1269;60850;-63
2023/04/06 02:07:55;;;;;;;12.40;10.80;;;;;;;20.57;55.96;98743.67;104216;1263;74710;-62
2023/04/06 02:10:33;;;;;;;12.80;11.50;;;;;;;20.54;55.90;98742.80;104241;1260;69828;-63
2023/04/06 02:13:04;;;;;;;13.60;11.50;;;;;;;20.60;56.57;98734.40;104395;1266;74138;-64
2023/04/06 02:15:33;;;;;;;14.40;12.10;;;;;;;20.61;56.25;98737.28;104376;1259;62850;-62
2023/04/06 02:18:01;;;;;;;13.20;11.80;;;;;;;20.57;56.48;98735.70;104298;1253;61612;-65
2023/04/06 02:20:30;;;;;;;13.00;11.10;;;;;;;20.66;55.85;98745.73;104280;1259;75262;-62
2023/04/06 02:23:02;;;;;;;12.50;11.10;;;;;;;20.68;55.82;98743.41;104295;1259;71234;-63
2023/04/06 02:25:31;;;;;;;12.30;11.00;;;;;;;20.64;56.22;98749.09;104205;1266;73508;-62
2023/04/06 02:27:59;;;;;;;13.60;11.90;;;;;;;20.69;56.17;98749.73;104285;1254;62379;-62
2023/04/06 02:30:31;;;;;;;12.40;11.10;;;;;;;20.67;56.30;98750.46;104237;1251;60821;-62
2023/04/06 02:33:00;;;;;;;13.90;12.50;;;;;;;20.66;55.90;98749.65;104254;1264;73407;-62
2023/04/06 02:35:30;;;;;;;12.70;11.30;;;;;;;20.69;55.86;98747.56;104333;1256;70569;-62
2023/04/06 02:37:59;;;;;;;12.20;11.00;;;;;;;20.81;55.90;98746.05;104311;1261;74288;-62
2023/04/06 02:40:27;;;;;;;13.80;12.30;;;;;;;20.82;55.63;98745.17;104278;1264;63048;-63
2023/04/06 02:42:56;;;;;;;13.00;11.30;;;;;;;20.83;55.25;98743.66;104455;1257;61148;-63
2023/04/06 02:45:29;;;;;;;13.50;12.20;;;;;;;20.90;55.21;98746.54;104349;1260;74545;-63
2023/04/06 02:47:57;;;;;;;13.10;11.80;;;;;;;20.89;55.19;98741.99;104323;1266;71102;-63
2023/04/06 02:50:26;;;;;;;13.10;11.60;;;;;;;20.90;54.87;98737.39;104244;1252;72870;-63
2023/04/06 02:53:00;;;;;;;13.50;11.80;;;;;;;20.85;55.08;98739.56;104325;1267;62711;-63
2023/04/06 02:55:28;;;;;;;13.50;11.90;;;;;;;20.87;55.06;98743.13;104336;1266;60863;-63
2023/04/06 02:57:56;;;;;;;12.80;11.50;;;;;;;20.87;54.95;98745.07;104429;1267;75054;-63
2023/04/06 03:00:28;;;;;;;13.80;11.60;;;;;;;20.84;55.25;98745.35;104220;1267;70937;-63
2023/04/06 03:02:57;;;;;;;12.30;10.70;;;;;;;20.82;55.33;98740.73;104242;1264;72802;-63
2023/04/06 03:05:27;;;;;;;13.30;11.90;;;;;;;20.83;54.96;98742.27;104494;1269;62420;-63
2023/04/06 03:07:55;;;;;;;13.20;11.80;;;;;;;20.80;55.20;98736.46;104308;1256;61241;-63
2023/04/06 03:10:35;;;;;;;14.10;11.40;;;;;;;20.82;54.95;98736.17;104370;1273;73228;-63
2023/04/06 03:13:05;;;;;;;12.70;11.40;;;;;;;20.83;55.14;98735.45;104322;1261;71168;-63
2023/04/06 03:15:54;;;;;;;13.60;11.70;;;;;;;20.89;54.97;98733.30;104387;1270;74190;-63
2023/04/06 03:18:25;;;;;;;14.00;11.60;;;;;;;20.86;54.59;98734.26;104436;1257;62228;-63
2023/04/06 03:20:56;;;;;;;12.50;11.20;;;;;;;20.83;55.22;98730.48;104371;1256;61515;-63
2023/04/06 03:23:44;;;;;;;12.50;11.20;;;;;;;20.85;54.84;98733.14;104325;1270;73892;-63
2023/04/06 03:26:13;;;;;;;11.40;10.10;;;;;;;20.79;55.08;98736.73;104299;1257;70431;-63
2023/04/06 03:28:41;;;;;;;13.70;11.40;;;;;;;20.83;54.94;98740.70;104251;1271;74227;-63
2023/04/06 03:31:13;;;;;;;13.70;11.80;;;;;;;20.86;54.71;98741.03;104326;1257;63086;-63
2023/04/06 03:34:05;;;;;;;11.60;10.40;;;;;;;20.86;54.89;98742.86;104310;1256;61359;-63
2023/04/06 03:36:35;;;;;;;13.20;11.20;;;;;;;20.89;54.77;98745.52;104271;1252;74776;-63
2023/04/06 03:39:05;;;;;;;13.00;11.30;;;;;;;20.91;54.93;98750.69;104336;1264;69762;-63
2023/04/06 03:41:35;;;;;;;13.40;12.00;;;;;;;20.93;54.75;98753.91;104227;1275;74348;-63
2023/04/06 03:44:15;;;;;;;14.20;12.30;;;;;;;20.94;54.59;98751.88;104445;1267;62474;-63
2023/04/06 03:46:45;;;;;;;12.90;11.50;;;;;;;20.88;55.02;98753.51;104315;1257;61346;-63
2023/04/06 03:49:14;;;;;;;13.10;11.40;;;;;;;20.96;54.35;98750.23;104340;1255;74588;-63
2023/04/06 03:51:44;;;;;;;13.90;10.90;;;;;;;21.00;54.56;98746.43;104274;1271;70782;-63
2023/04/06 03:54:12;;;;;;;11.80;10.40;;;;;;;20.99;54.68;98749.59;104353;1272;73950;-63
2023/04/06 03:56:41;;;;;;;11.80;10.40;;;;;;;21.01;54.62;98748.48;104214;1257;61691;-63
2023/04/06 03:59:10;;;;;;;11.70;10.30;;;;;;;21.08;54.19;98755.05;104407;1258;60770;-63
2023/04/06 04:01:41;;;;;;;11.30;10.10;;;;;;;21.11;54.26;98756.06;104340;1257;74071;-63
2023/04/06 04:04:10;;;;;;;10.80;9.50;;;;;;;21.12;54.05;98755.58;104358;1260;70554;-63
2023/04/06 04:06:39;;;;;;;11.90;10.60;;;;;;;21.12;54.30;98755.94;104365;1267;73021;-63
2023/04/06 04:09:08;;;;;;;9.90;9.00;;;;;;;21.10;54.14;98756.13;104311;1257;62654;-63
2023/04/06 04:11:38;;;;;;;10.50;9.30;;;;;;;21.05;54.36;98757.33;104236;1264;60841;-63
2023/04/06 04:14:06;;;;;;;9.10;8.20;;;;;;;21.03;54.33;98763.05;104310;1256;73624;-63
2023/04/06 04:16:35;;;;;;;10.00;9.00;;;;;;;21.06;54.39;98761.73;104454;1260;70170;-63
2023/04/06 04:19:04;;;;;;;11.00;8.50;;;;;;;21.08;54.13;98765.59;104257;1271;74157;-63
2023/04/06 04:21:32;;;;;;;9.20;8.20;;;;;;;21.09;54.56;98765.67;104444;1271;61950;-63
2023/04/06 04:24:08;;;;;;;10.70;9.50;;;;;;;21.15;53.95;98763.59;104238;1257;61109;-64
2023/04/06 04:26:37;;;;;;;9.40;8.40;;;;;;;21.18;54.02;98759.26;104514;1251;75539;-63
2023/04/06 04:29:06;;;;;;;9.40;8.50;;;;;;;21.15;54.07;98757.36;104480;1263;71920;-63
2023/04/06 04:31:36;;;;;;;9.90;8.80;;;;;;;21.17;53.99;98758.45;104395;1271;76022;-61
2023/04/06 04:34:06;;;;;;;8.70;7.90;;;;;;;21.11;54.19;98761.05;104516;1252;62501;-62
2023/04/06 04:36:44;;;;;;;8.40;7.20;;;;;;;21.14;54.47;98761.95;104657;1252;60843;-61
2023/04/06 04:39:17;;;;;;;10.40;7.70;;;;;;;21.19;54.17;98758.20;104409;1264;73645;-62
2023/04/06 04:41:49;;;;;;;9.30;7.60;;;;;;;21.14;54.42;98758.53;104276;1275;70191;-62
2023/04/06 04:44:18;;;;;;;8.20;7.40;;;;;;;21.18;54.60;98762.31;104468;1257;74192;-64
2023/04/06 04:46:48;;;;;;;9.30;7.90;;;;;;;21.22;54.37;98766.71;104374;1260;64104;-62
2023/04/06 04:49:20;;;;;;;11.30;8.00;;;;;;;21.26;54.17;98765.56;104319;1270;61737;-65
2023/04/06 04:51:52;;;;;;;9.30;7.40;;;;;;;21.29;54.20;98767.01;104405;1266;74261;-64
2023/04/06 04:54:33;;;;;;;9.70;8.60;;;;;;;21.32;54.12;98768.36;104506;1260;70088;-62
2023/04/06 04:57:03;;;;;;;10.00;7.50;;;;;;;21.28;53.87;98765.56;104390;1258;73616;-63
2023/04/06 04:59:43;;;;;;;8.70;7.80;;;;;;;21.28;53.99;98766.40;104315;1258;63128;-63
2023/04/06 05:02:18;;;;;;;8.30;7.30;;;;;;;21.29;54.02;98769.71;104562;1256;61701;-61
2023/04/06 05:04:59;;;;;;;8.90;7.60;;;;;;;21.34;54.03;98769.38;104361;1268;75087;-60
2023/04/06 05:07:29;;;;;;;8.90;7.50;;;;;;;21.34;54.07;98770.95;104307;1261;70045;-61
2023/04/06 05:10:03;;;;;;;8.50;7.60;;;;;;;21.31;54.02;98769.39;104260;1258;74111;-59
2023/04/06 05:12:35;;;;;;;8.20;7.40;;;;;;;21.33;53.90;98766.23;104336;1274;61949;-60
2023/04/06 05:15:08;;;;;;;9.20;8.20;;;;;;;21.40;54.13;98768.27;104386;1258;61540;-60
2023/04/06 05:17:37;;;;;;;7.70;7.00;;;;;;;21.42;53.65;98772.99;104456;1265;75630;-60
2023/04/06 05:20:07;;;;;;;8.70;7.80;;;;;;;21.53;53.70;98776.61;104539;1251;71144;-62
2023/04/06 05:22:39;;;;;;;8.60;7.80;;;;;;;21.51;53.55;98777.70;104316;1260;72894;-61
2023/04/06 05:25:10;;;;;;;9.80;7.40;;;;;;;21.54;53.94;98776.86;104612;1256;63237;-61
2023/04/06 05:27:40;;;;;;;8.80;7.30;;;;;;;21.55;54.03;98777.95;104668;1256;61673;-62
2023/04/06 05:30:20;;;;;;;8.20;7.00;;;;;;;21.60;53.70;98772.06;104649;1256;74470;-61
2023/04/06 05:32:50;;;;;;;9.10;6.70;;;;;;;21.62;53.58;98769.41;104462;1260;71089;-60
2023/04/06 05:35:20;;;;;;;8.80;7.40;;;;;;;21.62;53.33;98769.40;104271;1266;74003;-60
2023/04/06 05:37:52;;;;;;;7.80;7.10;;;;;;;21.64;53.42;98774.54;104305;1256;62483;-60
2023/04/06 05:40:23;;;;;;;8.10;7.30;;;;;;;21.65;53.28;98769.98;104193;1267;61782;-60
2023/04/06 05:42:52;;;;;;;8.00;6.90;;;;;;;21.65;53.25;98770.73;104363;1264;76115;-60
2023/04/06 05:45:21;;;;;;;9.20;7.30;;;;;;;21.65;53.22;98770.12;104191;1259;71101;-60
2023/04/06 05:47:53;;;;;;;7.40;6.60;;;;;;;21.63;53.20;98768.94;104245;1265;72964;-59
2023/04/06 05:50:25;;;;;;;9.10;7.40;;;;;;;21.54;53.31;98769.11;104341;1260;62344;-60
2023/04/06 05:52:54;;;;;;;7.20;6.50;;;;;;;21.50;53.49;98774.24;104336;1270;61606;-61
2023/04/06 05:55:23;;;;;;;6.90;6.20;;;;;;;21.53;53.69;98775.70;104315;1259;74423;-60
2023/04/06 05:57:57;;;;;;;7.70;6.70;;;;;;;21.62;53.24;98774.12;104328;1267;71057;-60
2023/04/06 06:00:27;;;;;;;7.30;6.50;;;;;;;21.64;53.17;98777.61;104508;1256;73309;-61
2023/04/06 06:03:00;;;;;;;7.20;6.60;;;;;;;21.63;53.20;98778.60;104588;1257;62303;-60
2023/04/06 06:05:29;;;;;;;6.90;6.20;;;;;;;21.69;53.13;98774.27;104693;1251;61595;-61
2023/04/06 06:08:01;;;;;;;8.10;6.80;;;;;;;21.73;52.87;98778.98;104477;1255;75391;-60
2023/04/06 06:10:31;;;;;;;7.30;6.50;;;;;;;21.70;53.06;98771.23;104269;1264;69876;-61
2023/04/06 06:13:00;;;;;;;7.00;6.40;;;;;;;21.72;52.88;98773.54;104794;1257;74161;-61
2023/04/06 06:15:28;;;;;;;7.20;6.20;;;;;;;21.81;53.00;98775.67;104463;1257;62972;-61
2023/04/06 06:17:57;;;;;;;7.10;6.40;;;;;;;21.87;52.93;98775.96;104679;1255;62067;-60
2023/04/06 06:20:26;;;;;;;7.90;7.20;;;;;;;21.87;53.04;98774.66;104416;1251;74760;-67
2023/04/06 06:22:55;;;;;;;7.00;6.30;;;;;;;21.89;53.23;98775.21;104346;1270;71101;-62
2023/04/06 06:25:24;;;;;;;6.50;5.80;;;;;;;21.95;53.56;98775.16;104586;1257;73072;-63
2023/04/06 06:27:53;;;;;;;7.10;6.40;;;;;;;22.08;53.96;98775.91;104355;1259;63554;-62
2023/04/06 06:30:22;;;;;;;8.10;7.10;;;;;;;22.19;53.45;98772.25;104561;1255;61620;-62
2023/04/06 06:32:52;;;;;;;7.20;6.30;;;;;;;22.30;53.16;98771.35;104869;1254;74956;-60
2023/04/06 06:35:21;;;;;;;7.10;6.40;;;;;;;22.37;52.76;98770.39;104446;1257;70119;-63
2023/04/06 06:37:49;;;;;;;6.50;5.90;;;;;;;22.42;52.57;98769.73;104304;1260;74298;-61
2023/04/06 06:40:23;;;;;;;6.70;6.20;;;;;;;22.46;52.32;98769.27;104425;1264;63110;-62
2023/04/06 06:42:53;;;;;;;6.60;6.00;;;;;;;22.46;52.47;98771.02;104442;1260;61635;-62
2023/04/06 06:45:42;;;;;;;6.70;6.10;;;;;;;22.51;51.99;98772.69;104673;1259;74872;-62
2023/04/06 06:48:13;;;;;;;7.70;6.20;;;;;;;22.54;51.78;98765.92;105101;1259;70699;-61
2023/04/06 06:50:42;;;;;;;7.10;6.40;;;;;;;22.59;52.23;98772.03;104959;1257;74741;-61
2023/04/06 06:53:15;;;;;;;7.60;6.20;;;;;;;22.56;52.46;98775.16;104597;1255;62980;-61
2023/04/06 06:55:48;;;;;;;7.80;5.80;;;;;;;22.61;51.73;98770.36;104569;1254;61601;-58
2023/04/06 06:58:20;;;;;;;6.50;5.90;;;;;;;22.67;51.85;98771.30;104347;1276;76434;-59
2023/04/06 07:00:49;;;;;;;6.30;5.70;;;;;;;22.71;51.63;98768.27;104261;1259;71384;-61
2023/04/06 07:03:18;;;;;;;8.80;6.30;;;;;;;22.82;51.42;98780.11;104567;1254;73605;-61
2023/04/06 07:05:52;;;;;;;6.60;5.90;;;;;;;22.85;51.75;98785.14;104687;1260;63197;-59
2023/04/06 07:08:22;;;;;;;6.60;5.90;;;;;;;22.88;51.57;98784.98;104521;1259;62348;-58
2023/04/06 07:10:57;;;;;;;8.50;6.10;;;;;;;22.85;51.14;98783.89;104748;1254;75404;-60
2023/04/06 07:13:27;;;;;;;6.20;5.50;;;;;;;22.86;51.35;98784.46;104796;1255;70978;-61
2023/04/06 07:15:58;;;;;;;6.30;5.70;;;;;;;22.88;51.58;98782.27;104923;1260;74183;-64
2023/04/06 07:18:29;;;;;;;7.90;5.80;;;;;;;22.95;51.60;98785.67;104570;1266;63688;-65
2023/04/06 07:20:59;;;;;;;6.50;5.20;;;;;;;23.00;51.60;98785.80;104512;1260;61687;-63
2023/04/06 07:23:28;;;;;;;6.30;5.70;;;;;;;23.05;51.28;98783.36;104424;1259;74118;-63
2023/04/06 07:25:57;;;;;;;5.70;5.10;;;;;;;23.09;51.29;98787.56;104593;1263;73165;-61
2023/04/06 07:28:25;;;;;;;5.80;5.20;;;;;;;23.16;51.34;98785.53;104633;1258;74300;-62
2023/04/06 07:30:55;;;;;;;6.00;4.70;;;;;;;23.25;51.22;98786.84;104863;1254;63209;-62
2023/04/06 07:33:30;;;;;;;6.30;5.70;;;;;;;23.32;50.96;98792.64;104373;1265;61596;-61
2023/04/06 07:35:59;;;;;;;6.00;5.20;;;;;;;23.31;50.65;98792.30;104381;1264;75083;-62
2023/04/06 07:38:28;;;;;;;6.00;5.40;;;;;;;23.34;50.87;98793.58;104430;1270;71210;-61
2023/04/06 07:40:57;;;;;;;10.60;5.60;;;;;;;23.30;50.93;98791.52;104327;1261;74290;-61
2023/04/06 07:43:27;;;;;;;5.30;4.80;;;;;;;23.28;50.81;98790.46;104496;1257;62483;-61
2023/04/06 07:45:57;;;;;;;7.80;5.20;;;;;;;23.31;51.12;98788.02;105672;1251;61588;-61
2023/04/06 07:48:27;;;;;;;8.20;5.50;;;;;;;23.34;50.80;98787.55;108236;1251;76445;-61
2023/04/06 07:51:03;;;;;;;5.20;4.70;;;;;;;23.28;51.13;98795.65;105918;1257;71173;-61
2023/04/06 07:53:32;;;;;;;5.50;5.00;;;;;;;23.33;51.19;98799.94;105274;1251;74774;-60
2023/04/06 07:56:01;;;;;;;5.30;4.80;;;;;;;23.40;51.26;98801.59;104466;1258;62278;-60
2023/04/06 07:58:29;;;;;;;5.20;4.70;;;;;;;23.41;51.22;98801.61;104723;1251;61596;-61
2023/04/06 08:01:04;;;;;;;7.40;5.70;;;;;;;23.34;51.08;98807.95;104406;1261;75424;-61
2023/04/06 08:03:35;;;;;;;5.50;5.00;;;;;;;23.31;51.35;98802.30;104602;1257;69903;-61
2023/04/06 08:06:05;;;;;;;6.90;5.30;;;;;;;23.37;51.12;98811.00;104470;1256;73161;-61
2023/04/06 08:08:41;;;;;;;6.10;5.20;;;;;;;23.34;51.12;98810.23;104530;1251;61723;-60
2023/04/06 08:11:10;;;;;;;7.00;4.90;;;;;;;23.40;51.38;98812.81;104676;1252;61621;-62
2023/04/06 08:13:38;;;;;;;5.90;4.90;;;;;;;23.47;51.15;98806.72;105428;1256;75137;-63
2023/04/06 08:16:08;;;;;;;5.60;4.90;;;;;;;23.40;50.93;98810.75;104454;1265;72433;-62
2023/04/06 08:18:37;;;;;;;4.90;4.40;;;;;;;23.33;51.04;98806.05;104365;1264;75870;-61
2023/04/06 08:21:05;;;;;;;6.30;5.20;;;;;;;23.29;51.28;98811.64;104317;1267;62858;-63
2023/04/06 08:23:34;;;;;;;7.20;5.00;;;;;;;23.30;51.11;98808.33;104447;1261;61665;-62
2023/04/06 08:26:03;;;;;;;5.90;4.90;;;;;;;23.37;50.99;98807.80;104557;1254;75391;-63
2023/04/06 08:28:35;;;;;;;5.70;4.50;;;;;;;23.37;50.99;98808.91;104420;1257;69837;-63
2023/04/06 08:31:06;;;;;;;6.80;5.40;;;;;;;23.37;50.85;98810.60;104612;1257;74212;-61
2023/04/06 08:33:38;;;;;;;5.00;4.50;;;;;;;23.51;50.58;98811.27;104553;1254;63193;-62
2023/04/06 08:36:11;;;;;;;5.00;4.50;;;;;;;23.52;50.45;98810.84;104876;1256;61587;-61
2023/04/06 08:38:42;;;;;;;6.20;4.80;;;;;;;23.51;50.33;98808.20;104434;1258;74727;-60
2023/04/06 08:41:12;;;;;;;7.30;5.00;;;;;;;23.50;50.60;98809.55;104700;1258;70561;-61
2023/04/06 08:43:48;;;;;;;12.00;4.70;;;;;;;23.49;50.44;98813.11;104371;1257;73883;-60
2023/04/06 08:46:17;;;;;;;7.70;5.10;;;;;;;23.48;50.39;98817.44;104639;1260;62892;-62
2023/04/06 08:48:45;;;;;;;6.00;5.10;;;;;;;23.48;50.26;98811.04;104495;1251;61630;-62
2023/04/06 08:51:15;;;;;;;8.50;5.30;;;;;;;23.48;50.55;98811.23;104387;1267;74892;-63
2023/04/06 08:53:43;;;;;;;6.10;5.10;;;;;;;23.45;50.77;98816.04;104923;1256;71413;-61
2023/04/06 08:56:12;;;;;;;5.20;4.70;;;;;;;23.51;50.60;98814.29;104303;1257;75247;-61
2023/04/06 08:58:40;;;;;;;6.90;4.90;;;;;;;23.46;50.59;98815.61;104490;1261;63085;-61
2023/04/06 09:01:12;;;;;;;5.90;5.00;;;;;;;23.45;50.62;98817.95;104490;1254;61689;-62
2023/04/06 09:03:45;;;;;;;6.70;5.20;;;;;;;23.44;50.80;98816.14;104371;1257;74523;-61
2023/04/06 09:06:14;;;;;;;6.20;5.60;;;;;;;23.47;50.81;98819.75;104776;1260;69821;-61
2023/04/06 09:08:43;;;;;;;8.30;5.60;;;;;;;23.49;50.76;98817.20;104965;1252;73080;-63
2023/04/06 09:11:11;;;;;;;7.60;5.20;;;;;;;23.45;50.84;98823.38;104783;1254;62650;-62
2023/04/06 09:13:51;;;;;;;8.60;5.10;;;;;;;23.54;50.80;98823.81;104718;1257;61695;-62
2023/04/06 09:16:19;;;;;;;6.60;5.30;;;;;;;23.54;50.74;98824.54;104325;1251;74341;-62
2023/04/06 09:18:48;;;;;;;6.10;5.50;;;;;;;23.48;50.89;98826.39;104617;1260;70747;-62
2023/04/06 09:21:17;;;;;;;8.10;5.80;;;;;;;23.53;50.76;98833.36;104424;1264;75221;-62
2023/04/06 09:23:48;;;;;;;6.80;5.90;;;;;;;23.42;51.21;98833.33;104378;1270;62069;-61
2023/04/06 09:26:17;;;;;;;6.40;5.30;;;;;;;23.41;51.41;98839.88;104638;1254;62165;-62
2023/04/06 09:28:52;;;;;;;6.70;6.00;;;;;;;23.41;51.36;98838.77;104818;1251;74126;-62
2023/04/06 09:31:27;;;;;;;5.60;4.90;;;;;;;23.29;52.05;98842.45;104618;1256;72009;-62
2023/04/06 09:33:56;;;;;;;6.00;5.50;;;;;;;23.30;52.37;98844.26;105037;1254;74549;-63
2023/04/06 09:36:32;;;;;;;7.10;5.70;;;;;;;23.30;52.39;98844.27;104474;1255;62534;-62
2023/04/06 09:39:04;;;;;;;10.30;5.40;;;;;;;23.36;52.43;98846.92;105044;1257;62078;-61
2023/04/06 09:41:34;;;;;;;10.30;6.10;;;;;;;23.31;52.82;98849.06;104329;1257;74440;-62
2023/04/06 09:44:07;;;;;;;6.30;5.30;;;;;;;23.24;52.96;98848.73;104806;1255;70504;-65
2023/04/06 09:46:39;;;;;;;6.80;5.70;;;;;;;23.26;53.35;98854.59;105187;1254;73445;-62
2023/04/06 09:49:28;;;;;;;5.40;4.90;;;;;;;23.33;52.99;98855.60;104631;1257;63155;-62
2023/04/06 09:52:03;;;;;;;5.70;5.20;;;;;;;23.35;53.18;98862.20;104600;1255;61775;-62
2023/04/06 09:54:32;;;;;;;5.80;5.30;;;;;;;23.31;53.23;98863.88;104807;1254;74516;-63
2023/04/06 09:57:08;;;;;;;6.30;5.50;;;;;;;23.32;53.42;98863.77;104546;1267;71078;-61
2023/04/06 10:00:07;;;;;;;5.80;5.30;;;;;;;23.36;53.44;98863.71;104689;1256;73904;-64
2023/04/06 10:02:50;;;;;;;6.60;5.50;;;;;;;23.35;53.79;98865.59;104717;1257;63145;-60
2023/04/06 10:05:20;;;;;;;6.40;5.20;;;;;;;23.30;53.64;98870.61;104845;1254;62176;-61
2023/04/06 10:07:50;;;;;;;6.90;4.60;;;;;;;23.22;53.81;98873.79;104708;1255;74497;-60
2023/04/06 10:10:28;;;;;;;5.00;4.60;;;;;;;23.15;54.41;98874.27;105326;1254;71716;-60
2023/04/06 10:12:57;;;;;;;6.90;5.40;;;;;;;23.15;54.61;98878.46;104267;1257;73054;-61
2023/04/06 10:15:32;;;;;;;5.70;5.10;;;;;;;23.18;54.41;98872.98;104987;1251;61924;-65
2023/04/06 10:18:01;;;;;;;5.30;4.50;;;;;;;23.24;54.59;98872.61;104924;1253;61704;-61
2023/04/06 10:20:36;;;;;;;6.70;5.50;;;;;;;23.23;54.50;98873.11;104478;1267;74733;-61
2023/04/06 10:23:08;;;;;;;6.10;5.30;;;;;;;23.21;54.83;98875.60;104241;1257;70386;-61
2023/04/06 10:25:38;;;;;;;6.10;5.50;;;;;;;23.24;54.47;98877.29;104477;1256;74236;-61
2023/04/06 10:28:08;;;;;;;7.40;6.20;;;;;;;23.24;54.37;98880.10;104201;1257;63938;-61
2023/04/06 10:30:41;;;;;;;6.30;5.70;;;;;;;23.28;54.57;98879.89;104953;1251;62877;-62
2023/04/06 10:33:17;;;;;;;8.00;6.30;;;;;;;23.31;54.53;98883.15;104895;1254;75649;-61
2023/04/06 10:35:46;;;;;;;6.50;5.60;;;;;;;23.30;54.76;98884.27;104644;1253;72434;-62
2023/04/06 10:38:19;;;;;;;6.20;5.70;;;;;;;23.32;54.89;98889.16;104632;1267;74163;-61
2023/04/06 10:40:48;;;;;;;8.00;6.00;;;;;;;23.39;54.97;98891.58;104622;1260;62052;-63
2023/04/06 10:43:21;;;;;;;7.10;6.50;;;;;;;23.47;54.58;98890.92;104539;1267;61561;-62
2023/04/06 10:45:57;;;;;;;8.20;7.40;;;;;;;23.44;54.41;98893.77;104591;1255;76200;-63
2023/04/06 10:48:40;;;;;;;8.00;7.20;;;;;;;23.43;54.55;98893.82;104425;1253;70859;-61
2023/04/06 10:51:27;;;;;;;10.30;6.80;;;;;;;23.56;54.67;98891.55;104486;1257;73314;-61
2023/04/06 10:53:56;;;;;;;7.80;7.10;;;;;;;23.56;54.70;98898.30;104756;1254;62490;-62
2023/04/06 10:56:27;;;;;;;8.80;7.80;;;;;;;23.48;54.97;98899.20;104796;1254;61566;-62
2023/04/06 10:58:56;;;;;;;8.60;7.70;;;;;;;23.54;55.15;98895.52;104716;1257;75553;-61
2023/04/06 11:01:27;;;;;;;9.30;8.30;;;;;;;23.54;55.14;98897.71;104634;1251;70411;-61
2023/04/06 11:03:59;;;;;;;8.70;8.00;;;;;;;23.56;55.61;98902.48;104814;1254;75106;-62
2023/04/06 11:06:30;;;;;;;8.60;7.90;;;;;;;23.63;55.40;98900.59;105023;1253;62262;-62
2023/04/06 11:09:00;;;;;;;8.40;7.40;;;;;;;23.65;55.27;98899.88;105169;1254;61662;-61
2023/04/06 11:11:29;;;;;;;7.90;7.20;;;;;;;23.71;55.19;98902.48;104745;1251;74150;-61
2023/04/06 11:14:01;;;;;;;9.40;8.50;;;;;;;23.74;55.08;98911.21;104728;1254;70782;-61
2023/04/06 11:16:31;;;;;;;8.00;7.20;;;;;;;23.70;55.00;98909.53;104773;1260;74026;-61
2023/04/06 11:19:01;;;;;;;8.50;7.70;;;;;;;23.74;55.20;98908.86;104964;1251;62312;-59
2023/04/06 11:21:33;;;;;;;8.00;7.20;;;;;;;23.77;54.91;98913.91;104718;1254;61621;-59
2023/04/06 11:24:16;;;;;;;8.80;7.90;;;;;;;23.83;54.63;98917.46;104909;1260;75299;-60
2023/04/06 11:26:48;;;;;;;8.30;7.60;;;;;;;23.82;54.83;98920.59;104411;1260;70355;-61
2023/04/06 11:29:21;;;;;;;9.60;8.30;;;;;;;23.86;54.57;98921.27;104919;1251;73727;-60
2023/04/06 11:31:51;;;;;;;9.50;8.60;;;;;;;23.85;54.75;98922.60;104584;1256;62435;-62
2023/04/06 11:34:23;;;;;;;10.80;8.80;;;;;;;23.83;54.83;98919.77;104301;1257;61588;-60
2023/04/06 11:36:59;;;;;;;11.20;8.90;;;;;;;23.77;55.05;98922.55;104401;1265;75360;-60
2023/04/06 11:39:29;;;;;;;11.10;10.00;;;;;;;23.79;54.96;98923.91;104560;1251;69803;-59
2023/04/06 11:42:04;;;;;;;11.30;9.40;;;;;;;23.79;54.97;98922.33;104453;1253;74009;-59